Terminal Aerodrome Forecast
Issued by NWS

Home | Current Version | Previous Version | Text Only | Print | Product List | Glossary On
Versions: 1 2 3 4 5 6 7 8 9 10 11 12 13 14 15 16
000
FTUS43 KIND 190500
TAFBMG
TAF
KBMG 190520Z 1906/2006 00000KT P6SM SCT020 BKN060
      TEMPO 1906/1909 BKN020
     FM191000 00000KT 4SM BR BKN100
     FM191600 01003KT P6SM SCT025 BKN250
     FM200300 00000KT P6SM SCT025 BKN100
      AMD LTD TO CLD VIS AND WIND TIL 191400=

USA.gov is the U.S. government's official web portal to all federal, state and local government web resources and services.